This is the latest recevied weather packets stored in our database for station/object K7UHP. If no packets are shown the sender has not sent any weather packets the latest 1 day(s).
| Time | Temp. | Humidity | Pressure | Rain* | Wind** | Luminosity | Snow |
|---|---|---|---|---|---|---|---|
| 1836274776 | 23.33° C | 37% | 1017 hPa | 0 mm | 0.89 m/s, 285° | - | - |
| 1836274146 | 23.33° C | 34% | 1016.9 hPa | 0 mm | 0 m/s | - | - |
| 1778058683 | 7.78° C | 54% | 1013.8 hPa | 0 mm | 9.39 m/s, 67° | - | - |
| 1778058053 | 7.78° C | 59% | 1014 hPa | 0.25 mm | 8.94 m/s, 59° | - | - |
| 1778057453 | 7.78° C | 64% | 1013.7 hPa | 6.35 mm | 8.05 m/s, 59° | - | - |
| 1778056823 | 7.22° C | 75% | 1013.5 hPa | 8.38 mm | 5.81 m/s, 66° | - | - |
| 1778056223 | 6.11° C | 85% | 1013.3 hPa | 8.38 mm | 9.83 m/s, 70° | - | - |
| 1778055593 | 5.56° C | 86% | 1013.3 hPa | 8.38 mm | 8.05 m/s, 63° | - | - |
| 1778054993 | 5.56° C | 86% | 1013.3 hPa | 8.38 mm | 6.26 m/s, 69° | - | - |
| 1778054363 | 5.56° C | 83% | 1013.5 hPa | 8.13 mm | 7.6 m/s, 78° | - | - |
| 1778053733 | 9.44° C | 64% | 1013.2 hPa | 0.51 mm | 8.94 m/s, 62° | - | - |
| 1778053133 | 11.11° C | 65% | 1012.9 hPa | 0 mm | 6.71 m/s, 87° | - | - |
| 1778052533 | 11.67° C | 73% | 1012.6 hPa | 0.25 mm | 1.34 m/s, 139° | - | - |
| 1778051933 | 11.67° C | 73% | 1012.4 hPa | 0.51 mm | 1.34 m/s, 119° | - | - |
| 1778051333 | 11.11° C | 74% | 1012.7 hPa | 0.51 mm | 0.89 m/s, 93° | - | - |
| 1778050733 | 11.11° C | 75% | 1012.6 hPa | 0 mm | 0.89 m/s, 120° | - | - |
| 1778050103 | 11.11° C | 75% | 1012.3 hPa | 0 mm | 2.24 m/s, 114° | - | - |
| 1778049503 | 11.11° C | 75% | 1012.4 hPa | 0 mm | 0.89 m/s, 113° | - | - |
| 1778048873 | 11.11° C | 73% | 1012.4 hPa | 0 mm | 2.24 m/s, 99° | - | - |
| 1778048243 | 11.11° C | 74% | 1012.1 hPa | 0 mm | 1.34 m/s, 101° | - | - |
| 1778047613 | 11.67° C | 73% | 1012.1 hPa | 0 mm | 3.58 m/s, 95° | - | - |
| 1778047013 | 12.22° C | 70% | 1012.3 hPa | 3.05 mm | 2.68 m/s, 61° | - | - |
| 1778046383 | 12.78° C | 62% | 1012.1 hPa | 2.79 mm | 1.34 m/s, 46° | - | - |
| 1778045783 | 13.33° C | 59% | 1012 hPa | 1.27 mm | 0.45 m/s, 297° | - | - |
| 1778045153 | 13.33° C | 57% | 1011.5 hPa | 0 mm | 0 m/s | - | - |
* Rain latest hour (hover to see other rain measurements)
** Current wind speed in m/s (hover to see current wind gust speed)